レイキャビク/ケフラヴィーク の空港の天気 - METARとTAF

ケフラヴィーク国際空港 ( BIKF / KEF ) - アイスランド ケプラヴィーク
飛行場実況気象(Metar)
観測時間07/17 09:30 GMT (07/17 09:30 UTC)
風向・風速北北西 3m/s
視程10km以上
天気現象
なし
気温12℃
湿度44%
気圧1010hPa
METARBIKF 170930Z 34005KT 290V020 CAVOK 12/M00 Q1010
過去の天気等 Google飛行場航空写真 Wunderground天気予報

過去48時間のMETAR

飛行場予報(TAF)
発表時間: 7/17 07:49 GMT (7/17 07:49 UTC)
予報対象時間: 17日9時 GMT ~ 18日9時 GMT
風向・風速北 4m/s
視程10km以上
なし
17日12時 GMT ~ 17日14時 GMT に徐々に
風向・風速西 5m/s
少しの雲 雲底高度 1520m
18日0時 GMT ~ 18日2時 GMT に徐々に
風向・風速南 4m/s
少しの雲 雲底高度 760m
全天の4割程度の雲 雲底高度 1220m
TAF BIKF 170749Z 1709/1809 36008KT CAVOK TX14/1712Z TN06/1803Z
BECMG 1712/1714 27010KT FEW050
BECMG 1800/1802 18008KT FEW025 SCT040